KEUF

Details ICAO KEUF
Name WEEDON FLD
Region United States
Timezone America/Chicago (UTC-5.0)
Plans Departing 1
Arriving 2
Stats Elevation 285 ft / 87 m (AMSL)
Location 31.951320° -85.128925°
Runways 1
Magnetic Variation 4.430° W
Sunrise 2018-05-20 10:41:39 UTC / 2018-05-20 05:41:39 Local
Sunset 2018-05-21 00:35:18 UTC / 2018-05-20 19:35:18 Local
Advertisement - Login to hide

Runways

ID Width Length Bearing (true) Bearing (mag) Surface Threshold Offset Overrun Length
18 100 ft / 30 m 5,015 ft / 1,529 m 183.60° 188.03° Asphalt 0 ft / 0 m 0 ft / 0 m
36 100 ft / 30 m 5,015 ft / 1,529 m 3.60° 8.03° Asphalt 0 ft / 0 m 0 ft / 0 m

Map

Weather


0- 5 10 15 20 25 30 35+ Temperature / ° C

Clouds and Precipitation
Forecast for 2018-05-21 00:00 UTC. Updated an hour ago

Ground ~20,000 ft ~40,000 ft Winds

METAR

KEUF 202358Z AUTO 12008KT 10SM CLR 25/21 A3007 RMK AO2 SLP178 T02500206 10300 20250 53006

TAF

Not found

Frequencies

Unicom 122.80 MHz CTAF/UNICOM
Approach 125.50 MHz ATLANTA APP/DEP
Clearance 134.25 MHz ATLANTA CLNC DEL
Approach 126.55 MHz ATLANTA APP/DEP
Warning: Do not use this data for real-world aviation or navigation. No guarantee of current accuracy is given.